sensor_id;sensor_type;location;lat;lon;timestamp;temperature;humidity
7822;DHT22;3956;50.558;9.678;2022-10-16T00:00:37;14.20;1.00
7822;DHT22;3956;50.558;9.678;2022-10-16T00:03:06;14.10;1.00
7822;DHT22;3956;50.558;9.678;2022-10-16T00:05:38;14.00;1.00
7822;DHT22;3956;50.558;9.678;2022-10-16T00:08:08;14.00;1.00
7822;DHT22;3956;50.558;9.678;2022-10-16T00:10:36;14.00;1.00
7822;DHT22;3956;50.558;9.678;2022-10-16T00:13:06;13.90;1.00
7822;DHT22;3956;50.558;9.678;2022-10-16T00:15:54;13.90;1.00
7822;DHT22;3956;50.558;9.678;2022-10-16T00:18:30;13.90;1.00
7822;DHT22;3956;50.558;9.678;2022-10-16T00:21:03;13.80;1.00
7822;DHT22;3956;50.558;9.678;2022-10-16T00:23:39;13.80;1.00
7822;DHT22;3956;50.558;9.678;2022-10-16T00:26:19;13.80;1.00
7822;DHT22;3956;50.558;9.678;2022-10-16T00:28:50;13.80;1.00
7822;DHT22;3956;50.558;9.678;2022-10-16T00:31:24;13.70;1.00
7822;DHT22;3956;50.558;9.678;2022-10-16T00:33:56;13.70;1.00
7822;DHT22;3956;50.558;9.678;2022-10-16T00:36:27;13.70;1.00
7822;DHT22;3956;50.558;9.678;2022-10-16T00:38:57;13.70;1.00
7822;DHT22;3956;50.558;9.678;2022-10-16T00:41:27;13.60;1.00
7822;DHT22;3956;50.558;9.678;2022-10-16T00:43:58;13.60;1.00
7822;DHT22;3956;50.558;9.678;2022-10-16T00:46:31;13.60;1.00
7822;DHT22;3956;50.558;9.678;2022-10-16T00:49:05;13.50;1.00
7822;DHT22;3956;50.558;9.678;2022-10-16T00:51:37;13.50;1.00
7822;DHT22;3956;50.558;9.678;2022-10-16T00:54:10;13.50;1.00
7822;DHT22;3956;50.558;9.678;2022-10-16T00:56:41;13.60;1.00
7822;DHT22;3956;50.558;9.678;2022-10-16T00:59:15;13.50;1.00
7822;DHT22;3956;50.558;9.678;2022-10-16T01:01:45;13.50;1.00
7822;DHT22;3956;50.558;9.678;2022-10-16T01:04:14;13.50;1.00
7822;DHT22;3956;50.558;9.678;2022-10-16T01:06:47;13.50;1.00
7822;DHT22;3956;50.558;9.678;2022-10-16T01:09:23;13.50;1.00
7822;DHT22;3956;50.558;9.678;2022-10-16T01:12:03;13.60;1.00
7822;DHT22;3956;50.558;9.678;2022-10-16T01:14:42;13.60;1.00
7822;DHT22;3956;50.558;9.678;2022-10-16T01:17:26;13.60;1.00
7822;DHT22;3956;50.558;9.678;2022-10-16T01:20:06;13.60;1.00
7822;DHT22;3956;50.558;9.678;2022-10-16T01:22:43;13.60;1.00
7822;DHT22;3956;50.558;9.678;2022-10-16T01:25:19;13.50;1.00
7822;DHT22;3956;50.558;9.678;2022-10-16T01:27:52;13.60;1.00
7822;DHT22;3956;50.558;9.678;2022-10-16T01:30:23;13.60;1.00
7822;DHT22;3956;50.558;9.678;2022-10-16T01:32:57;13.60;1.00
7822;DHT22;3956;50.558;9.678;2022-10-16T01:35:34;13.60;1.00
7822;DHT22;3956;50.558;9.678;2022-10-16T01:38:12;13.60;1.00
7822;DHT22;3956;50.558;9.678;2022-10-16T01:40:57;13.60;1.00
7822;DHT22;3956;50.558;9.678;2022-10-16T01:43:32;13.60;1.00
7822;DHT22;3956;50.558;9.678;2022-10-16T01:46:03;13.60;1.00
7822;DHT22;3956;50.558;9.678;2022-10-16T01:48:33;13.60;1.00
7822;DHT22;3956;50.558;9.678;2022-10-16T01:51:05;13.60;1.00
7822;DHT22;3956;50.558;9.678;2022-10-16T01:53:34;13.60;1.00
7822;DHT22;3956;50.558;9.678;2022-10-16T01:56:06;13.50;1.00
7822;DHT22;3956;50.558;9.678;2022-10-16T01:58:40;13.50;1.00
7822;DHT22;3956;50.558;9.678;2022-10-16T02:01:11;13.50;1.00
7822;DHT22;3956;50.558;9.678;2022-10-16T02:03:42;13.50;1.00
7822;DHT22;3956;50.558;9.678;2022-10-16T02:06:12;13.50;1.00
7822;DHT22;3956;50.558;9.678;2022-10-16T02:08:40;13.50;1.00
7822;DHT22;3956;50.558;9.678;2022-10-16T02:11:11;13.50;1.00
7822;DHT22;3956;50.558;9.678;2022-10-16T02:13:44;13.50;1.00
7822;DHT22;3956;50.558;9.678;2022-10-16T02:16:13;13.50;1.00
7822;DHT22;3956;50.558;9.678;2022-10-16T02:18:43;13.50;1.00
7822;DHT22;3956;50.558;9.678;2022-10-16T02:21:15;13.60;1.00
7822;DHT22;3956;50.558;9.678;2022-10-16T02:23:49;13.60;1.00
7822;DHT22;3956;50.558;9.678;2022-10-16T02:26:23;13.60;1.00
7822;DHT22;3956;50.558;9.678;2022-10-16T02:29:00;13.60;1.00
7822;DHT22;3956;50.558;9.678;2022-10-16T02:31:32;13.60;1.00
7822;DHT22;3956;50.558;9.678;2022-10-16T02:34:07;13.60;1.00
7822;DHT22;3956;50.558;9.678;2022-10-16T02:36:42;13.70;1.00
7822;DHT22;3956;50.558;9.678;2022-10-16T02:39:11;13.70;1.00
7822;DHT22;3956;50.558;9.678;2022-10-16T02:41:39;13.80;1.00
7822;DHT22;3956;50.558;9.678;2022-10-16T02:44:09;13.90;1.00
7822;DHT22;3956;50.558;9.678;2022-10-16T02:46:37;13.90;1.00
7822;DHT22;3956;50.558;9.678;2022-10-16T02:49:05;13.90;1.00
7822;DHT22;3956;50.558;9.678;2022-10-16T02:51:34;13.90;1.00
7822;DHT22;3956;50.558;9.678;2022-10-16T02:54:02;13.90;1.00
7822;DHT22;3956;50.558;9.678;2022-10-16T02:56:31;13.90;1.00
7822;DHT22;3956;50.558;9.678;2022-10-16T02:58:59;13.90;1.00
7822;DHT22;3956;50.558;9.678;2022-10-16T03:01:29;13.90;1.00
7822;DHT22;3956;50.558;9.678;2022-10-16T03:03:57;13.90;1.00
7822;DHT22;3956;50.558;9.678;2022-10-16T03:06:25;13.90;1.00
7822;DHT22;3956;50.558;9.678;2022-10-16T03:08:53;13.90;1.00
7822;DHT22;3956;50.558;9.678;2022-10-16T03:11:22;13.90;1.00
7822;DHT22;3956;50.558;9.678;2022-10-16T03:13:50;14.00;1.00
7822;DHT22;3956;50.558;9.678;2022-10-16T03:16:18;14.00;1.00
7822;DHT22;3956;50.558;9.678;2022-10-16T03:18:49;13.90;1.00
7822;DHT22;3956;50.558;9.678;2022-10-16T03:21:17;14.00;1.00
7822;DHT22;3956;50.558;9.678;2022-10-16T03:23:46;14.00;1.00
7822;DHT22;3956;50.558;9.678;2022-10-16T03:26:14;13.90;1.00
7822;DHT22;3956;50.558;9.678;2022-10-16T03:28:43;13.90;1.00
7822;DHT22;3956;50.558;9.678;2022-10-16T03:31:11;13.90;1.00
7822;DHT22;3956;50.558;9.678;2022-10-16T03:33:39;13.90;1.00
7822;DHT22;3956;50.558;9.678;2022-10-16T03:36:09;13.90;1.00
7822;DHT22;3956;50.558;9.678;2022-10-16T03:38:37;13.90;1.00
7822;DHT22;3956;50.558;9.678;2022-10-16T03:41:05;14.00;99.90
7822;DHT22;3956;50.558;9.678;2022-10-16T03:43:34;13.90;1.00
7822;DHT22;3956;50.558;9.678;2022-10-16T03:46:02;13.90;1.00
7822;DHT22;3956;50.558;9.678;2022-10-16T03:48:31;13.90;99.90
7822;DHT22;3956;50.558;9.678;2022-10-16T03:50:59;13.90;1.00
7822;DHT22;3956;50.558;9.678;2022-10-16T03:53:29;13.80;1.00
7822;DHT22;3956;50.558;9.678;2022-10-16T03:55:57;13.80;1.00
7822;DHT22;3956;50.558;9.678;2022-10-16T03:58:26;13.90;1.00
7822;DHT22;3956;50.558;9.678;2022-10-16T04:00:54;13.90;1.00
7822;DHT22;3956;50.558;9.678;2022-10-16T04:03:22;13.90;1.00
7822;DHT22;3956;50.558;9.678;2022-10-16T04:05:51;13.80;1.00
7822;DHT22;3956;50.558;9.678;2022-10-16T04:08:19;13.80;1.00
7822;DHT22;3956;50.558;9.678;2022-10-16T04:10:48;13.80;99.90
7822;DHT22;3956;50.558;9.678;2022-10-16T04:13:17;13.80;99.90
7822;DHT22;3956;50.558;9.678;2022-10-16T04:15:50;13.70;99.90
7822;DHT22;3956;50.558;9.678;2022-10-16T04:18:18;13.70;99.90
7822;DHT22;3956;50.558;9.678;2022-10-16T04:20:46;13.70;99.90
7822;DHT22;3956;50.558;9.678;2022-10-16T04:23:15;13.70;99.90
7822;DHT22;3956;50.558;9.678;2022-10-16T04:25:43;13.70;1.00
7822;DHT22;3956;50.558;9.678;2022-10-16T04:28:13;13.70;1.00
7822;DHT22;3956;50.558;9.678;2022-10-16T04:30:44;13.70;1.00
7822;DHT22;3956;50.558;9.678;2022-10-16T04:33:52;13.60;1.00
7822;DHT22;3956;50.558;9.678;2022-10-16T04:36:40;13.60;1.00
7822;DHT22;3956;50.558;9.678;2022-10-16T04:39:09;13.70;99.90
7822;DHT22;3956;50.558;9.678;2022-10-16T04:41:37;13.70;1.00
7822;DHT22;3956;50.558;9.678;2022-10-16T04:44:06;13.50;1.00
7822;DHT22;3956;50.558;9.678;2022-10-16T04:46:35;13.60;1.00
7822;DHT22;3956;50.558;9.678;2022-10-16T04:49:03;13.60;1.00
7822;DHT22;3956;50.558;9.678;2022-10-16T04:51:32;13.80;1.00
7822;DHT22;3956;50.558;9.678;2022-10-16T04:54:00;13.60;79.20
7822;DHT22;3956;50.558;9.678;2022-10-16T04:56:28;13.70;99.90
7822;DHT22;3956;50.558;9.678;2022-10-16T04:58:59;13.70;99.90
7822;DHT22;3956;50.558;9.678;2022-10-16T05:01:37;13.60;99.90
7822;DHT22;3956;50.558;9.678;2022-10-16T05:04:10;13.70;99.90
7822;DHT22;3956;50.558;9.678;2022-10-16T05:06:38;13.60;99.90
7822;DHT22;3956;50.558;9.678;2022-10-16T05:09:07;13.70;99.90
7822;DHT22;3956;50.558;9.678;2022-10-16T05:11:36;13.70;99.90
7822;DHT22;3956;50.558;9.678;2022-10-16T05:14:04;13.70;66.40
7822;DHT22;3956;50.558;9.678;2022-10-16T05:16:32;13.70;1.00
7822;DHT22;3956;50.558;9.678;2022-10-16T05:19:02;13.70;1.00
7822;DHT22;3956;50.558;9.678;2022-10-16T05:21:50;13.70;1.00
7822;DHT22;3956;50.558;9.678;2022-10-16T05:24:18;13.70;1.00
7822;DHT22;3956;50.558;9.678;2022-10-16T05:26:47;13.70;1.00
7822;DHT22;3956;50.558;9.678;2022-10-16T05:29:15;13.70;1.00
7822;DHT22;3956;50.558;9.678;2022-10-16T05:31:43;13.60;99.90
7822;DHT22;3956;50.558;9.678;2022-10-16T05:34:13;13.50;1.00
7822;DHT22;3956;50.558;9.678;2022-10-16T05:36:41;13.50;1.00
7822;DHT22;3956;50.558;9.678;2022-10-16T05:39:13;13.50;1.00
7822;DHT22;3956;50.558;9.678;2022-10-16T05:41:42;13.50;99.90
7822;DHT22;3956;50.558;9.678;2022-10-16T05:44:10;13.50;99.90
7822;DHT22;3956;50.558;9.678;2022-10-16T05:46:39;13.50;56.10
7822;DHT22;3956;50.558;9.678;2022-10-16T05:49:07;13.60;1.00
7822;DHT22;3956;50.558;9.678;2022-10-16T05:51:36;13.50;1.00
7822;DHT22;3956;50.558;9.678;2022-10-16T05:54:05;13.50;1.00
7822;DHT22;3956;50.558;9.678;2022-10-16T05:56:33;13.60;1.00
7822;DHT22;3956;50.558;9.678;2022-10-16T05:59:03;13.50;1.00
7822;DHT22;3956;50.558;9.678;2022-10-16T06:01:31;13.50;1.00
7822;DHT22;3956;50.558;9.678;2022-10-16T06:04:02;13.40;1.00
7822;DHT22;3956;50.558;9.678;2022-10-16T06:06:32;13.40;99.90
7822;DHT22;3956;50.558;9.678;2022-10-16T06:09:04;13.40;1.00
7822;DHT22;3956;50.558;9.678;2022-10-16T06:11:33;13.50;99.90
7822;DHT22;3956;50.558;9.678;2022-10-16T06:14:02;13.40;99.90
7822;DHT22;3956;50.558;9.678;2022-10-16T06:16:34;13.40;99.90
7822;DHT22;3956;50.558;9.678;2022-10-16T06:19:04;13.40;99.90
7822;DHT22;3956;50.558;9.678;2022-10-16T06:21:33;13.40;99.90
7822;DHT22;3956;50.558;9.678;2022-10-16T06:24:01;13.40;99.90
7822;DHT22;3956;50.558;9.678;2022-10-16T06:26:31;13.30;99.90
7822;DHT22;3956;50.558;9.678;2022-10-16T06:28:59;13.40;32.80
7822;DHT22;3956;50.558;9.678;2022-10-16T06:31:29;13.40;1.00
7822;DHT22;3956;50.558;9.678;2022-10-16T06:33:58;13.60;99.90
7822;DHT22;3956;50.558;9.678;2022-10-16T06:36:27;13.50;99.90
7822;DHT22;3956;50.558;9.678;2022-10-16T06:38:55;13.60;1.00
7822;DHT22;3956;50.558;9.678;2022-10-16T06:41:24;13.40;7.90
7822;DHT22;3956;50.558;9.678;2022-10-16T06:43:54;13.60;99.90
7822;DHT22;3956;50.558;9.678;2022-10-16T06:46:23;13.50;1.00
7822;DHT22;3956;50.558;9.678;2022-10-16T06:48:53;13.50;99.90
7822;DHT22;3956;50.558;9.678;2022-10-16T06:51:25;13.70;99.90
7822;DHT22;3956;50.558;9.678;2022-10-16T06:53:56;13.70;1.00
7822;DHT22;3956;50.558;9.678;2022-10-16T06:56:31;13.70;35.00
7822;DHT22;3956;50.558;9.678;2022-10-16T07:05:37;13.70;1.00
7822;DHT22;3956;50.558;9.678;2022-10-16T07:08:05;13.70;1.00
7822;DHT22;3956;50.558;9.678;2022-10-16T07:10:34;13.70;1.00
7822;DHT22;3956;50.558;9.678;2022-10-16T07:13:02;13.80;1.00
7822;DHT22;3956;50.558;9.678;2022-10-16T07:15:31;13.80;1.00
7822;DHT22;3956;50.558;9.678;2022-10-16T07:17:59;13.80;1.00
7822;DHT22;3956;50.558;9.678;2022-10-16T07:20:28;13.90;99.90
7822;DHT22;3956;50.558;9.678;2022-10-16T07:22:58;13.80;96.70
7822;DHT22;3956;50.558;9.678;2022-10-16T07:25:26;13.90;1.00
7822;DHT22;3956;50.558;9.678;2022-10-16T07:27:54;14.00;1.00
7822;DHT22;3956;50.558;9.678;2022-10-16T07:30:23;14.00;1.00
7822;DHT22;3956;50.558;9.678;2022-10-16T07:32:52;14.10;1.00
7822;DHT22;3956;50.558;9.678;2022-10-16T07:35:20;14.10;99.90
7822;DHT22;3956;50.558;9.678;2022-10-16T07:37:48;14.10;1.00
7822;DHT22;3956;50.558;9.678;2022-10-16T07:40:24;14.20;1.00
7822;DHT22;3956;50.558;9.678;2022-10-16T07:42:58;14.30;1.00
7822;DHT22;3956;50.558;9.678;2022-10-16T07:45:50;14.40;99.90
7822;DHT22;3956;50.558;9.678;2022-10-16T07:48:26;14.40;1.00
7822;DHT22;3956;50.558;9.678;2022-10-16T07:51:29;14.50;99.90
7822;DHT22;3956;50.558;9.678;2022-10-16T07:54:30;14.60;1.00
7822;DHT22;3956;50.558;9.678;2022-10-16T07:57:02;14.70;1.00
7822;DHT22;3956;50.558;9.678;2022-10-16T07:59:56;14.70;99.90
7822;DHT22;3956;50.558;9.678;2022-10-16T08:02:59;14.70;1.00
7822;DHT22;3956;50.558;9.678;2022-10-16T08:05:28;14.80;51.30
7822;DHT22;3956;50.558;9.678;2022-10-16T08:07:57;14.70;1.00
7822;DHT22;3956;50.558;9.678;2022-10-16T08:10:27;14.90;99.90
7822;DHT22;3956;50.558;9.678;2022-10-16T08:12:57;15.00;51.90
7822;DHT22;3956;50.558;9.678;2022-10-16T08:15:28;15.00;1.00
7822;DHT22;3956;50.558;9.678;2022-10-16T08:18:02;15.00;1.00
7822;DHT22;3956;50.558;9.678;2022-10-16T08:20:36;15.10;1.00
7822;DHT22;3956;50.558;9.678;2022-10-16T08:23:05;15.10;99.90
7822;DHT22;3956;50.558;9.678;2022-10-16T08:25:35;15.10;99.90
7822;DHT22;3956;50.558;9.678;2022-10-16T08:28:05;15.10;99.90
7822;DHT22;3956;50.558;9.678;2022-10-16T08:30:41;15.20;70.50
7822;DHT22;3956;50.558;9.678;2022-10-16T08:33:09;15.40;1.00
7822;DHT22;3956;50.558;9.678;2022-10-16T08:35:38;15.40;1.00
7822;DHT22;3956;50.558;9.678;2022-10-16T08:38:09;15.30;1.00
7822;DHT22;3956;50.558;9.678;2022-10-16T08:40:45;15.30;1.00
7822;DHT22;3956;50.558;9.678;2022-10-16T08:43:37;15.30;1.00
7822;DHT22;3956;50.558;9.678;2022-10-16T08:46:40;15.20;1.00
7822;DHT22;3956;50.558;9.678;2022-10-16T08:49:43;15.10;99.90
7822;DHT22;3956;50.558;9.678;2022-10-16T08:52:19;15.10;99.90
7822;DHT22;3956;50.558;9.678;2022-10-16T08:54:53;15.10;99.90
7822;DHT22;3956;50.558;9.678;2022-10-16T08:57:24;15.10;1.00
7822;DHT22;3956;50.558;9.678;2022-10-16T09:00:00;15.20;1.00
7822;DHT22;3956;50.558;9.678;2022-10-16T09:02:38;15.30;1.00
7822;DHT22;3956;50.558;9.678;2022-10-16T09:05:29;15.30;1.00
7822;DHT22;3956;50.558;9.678;2022-10-16T09:08:09;15.40;1.00
7822;DHT22;3956;50.558;9.678;2022-10-16T09:11:18;15.50;1.00
7822;DHT22;3956;50.558;9.678;2022-10-16T09:13:51;15.50;1.00
7822;DHT22;3956;50.558;9.678;2022-10-16T09:16:42;15.60;1.00
7822;DHT22;3956;50.558;9.678;2022-10-16T09:19:18;15.50;1.00
7822;DHT22;3956;50.558;9.678;2022-10-16T09:21:49;15.60;1.00
7822;DHT22;3956;50.558;9.678;2022-10-16T09:24:21;15.50;1.00
7822;DHT22;3956;50.558;9.678;2022-10-16T09:26:56;15.50;1.00
7822;DHT22;3956;50.558;9.678;2022-10-16T09:29:25;15.50;1.00
7822;DHT22;3956;50.558;9.678;2022-10-16T09:31:58;15.40;1.00
7822;DHT22;3956;50.558;9.678;2022-10-16T09:34:42;15.30;1.00
7822;DHT22;3956;50.558;9.678;2022-10-16T09:37:23;15.30;99.90
7822;DHT22;3956;50.558;9.678;2022-10-16T09:40:25;15.30;99.90
7822;DHT22;3956;50.558;9.678;2022-10-16T09:43:46;15.20;99.90
7822;DHT22;3956;50.558;9.678;2022-10-16T09:46:29;15.20;99.90
7822;DHT22;3956;50.558;9.678;2022-10-16T09:49:04;15.10;1.00
7822;DHT22;3956;50.558;9.678;2022-10-16T09:51:37;15.10;1.00
7822;DHT22;3956;50.558;9.678;2022-10-16T09:54:16;15.10;77.50
7822;DHT22;3956;50.558;9.678;2022-10-16T09:57:07;15.00;99.90
7822;DHT22;3956;50.558;9.678;2022-10-16T09:59:46;15.00;1.00
7822;DHT22;3956;50.558;9.678;2022-10-16T10:02:38;15.10;1.00
7822;DHT22;3956;50.558;9.678;2022-10-16T10:05:56;15.10;99.90
7822;DHT22;3956;50.558;9.678;2022-10-16T10:08:33;15.10;1.00
7822;DHT22;3956;50.558;9.678;2022-10-16T10:11:01;15.30;1.00
7822;DHT22;3956;50.558;9.678;2022-10-16T10:13:32;15.50;1.00
7822;DHT22;3956;50.558;9.678;2022-10-16T10:16:02;15.70;2.60
7822;DHT22;3956;50.558;9.678;2022-10-16T10:18:35;15.80;99.90
7822;DHT22;3956;50.558;9.678;2022-10-16T10:21:12;15.90;1.00
7822;DHT22;3956;50.558;9.678;2022-10-16T10:24:02;15.80;99.90
7822;DHT22;3956;50.558;9.678;2022-10-16T10:26:32;15.70;47.70
7822;DHT22;3956;50.558;9.678;2022-10-16T10:29:12;15.80;1.00
7822;DHT22;3956;50.558;9.678;2022-10-16T10:31:48;15.70;1.00
7822;DHT22;3956;50.558;9.678;2022-10-16T10:34:41;15.80;1.00
7822;DHT22;3956;50.558;9.678;2022-10-16T10:38:06;16.00;1.00
7822;DHT22;3956;50.558;9.678;2022-10-16T10:41:47;16.10;99.90
7822;DHT22;3956;50.558;9.678;2022-10-16T10:44:27;15.90;99.90
7822;DHT22;3956;50.558;9.678;2022-10-16T10:47:08;16.00;1.00
7822;DHT22;3956;50.558;9.678;2022-10-16T10:49:50;15.90;1.00
7822;DHT22;3956;50.558;9.678;2022-10-16T10:55:31;15.80;99.90
7822;DHT22;3956;50.558;9.678;2022-10-16T10:58:22;15.60;1.00
7822;DHT22;3956;50.558;9.678;2022-10-16T11:01:05;15.50;1.00
7822;DHT22;3956;50.558;9.678;2022-10-16T11:03:57;15.40;99.90
7822;DHT22;3956;50.558;9.678;2022-10-16T11:06:35;15.80;99.90
7822;DHT22;3956;50.558;9.678;2022-10-16T11:09:17;15.70;99.90
7822;DHT22;3956;50.558;9.678;2022-10-16T11:11:52;15.90;99.90
7822;DHT22;3956;50.558;9.678;2022-10-16T11:14:33;15.90;99.90
7822;DHT22;3956;50.558;9.678;2022-10-16T11:17:10;15.90;99.90
7822;DHT22;3956;50.558;9.678;2022-10-16T11:19:44;15.80;99.90
7822;DHT22;3956;50.558;9.678;2022-10-16T11:22:23;16.00;99.90
7822;DHT22;3956;50.558;9.678;2022-10-16T11:25:00;15.70;99.90
7822;DHT22;3956;50.558;9.678;2022-10-16T11:27:55;16.00;99.90
7822;DHT22;3956;50.558;9.678;2022-10-16T11:30:28;16.10;99.90
7822;DHT22;3956;50.558;9.678;2022-10-16T11:33:10;15.90;99.90
7822;DHT22;3956;50.558;9.678;2022-10-16T11:35:49;16.00;99.90
7822;DHT22;3956;50.558;9.678;2022-10-16T11:38:27;16.10;99.90
7822;DHT22;3956;50.558;9.678;2022-10-16T11:41:02;16.40;99.90
7822;DHT22;3956;50.558;9.678;2022-10-16T11:43:52;16.40;99.90
7822;DHT22;3956;50.558;9.678;2022-10-16T11:46:51;16.40;99.90
7822;DHT22;3956;50.558;9.678;2022-10-16T11:49:56;16.80;99.90
7822;DHT22;3956;50.558;9.678;2022-10-16T11:52:36;16.70;99.90
7822;DHT22;3956;50.558;9.678;2022-10-16T11:55:22;16.40;99.90
7822;DHT22;3956;50.558;9.678;2022-10-16T11:58:19;16.90;99.90
7822;DHT22;3956;50.558;9.678;2022-10-16T12:04:39;17.00;99.90
7822;DHT22;3956;50.558;9.678;2022-10-16T12:07:14;17.10;99.90
7822;DHT22;3956;50.558;9.678;2022-10-16T12:09:49;17.10;99.90
7822;DHT22;3956;50.558;9.678;2022-10-16T12:12:24;16.90;99.90
7822;DHT22;3956;50.558;9.678;2022-10-16T12:15:01;17.30;99.90
7822;DHT22;3956;50.558;9.678;2022-10-16T12:17:44;17.30;99.90
7822;DHT22;3956;50.558;9.678;2022-10-16T12:20:25;17.60;99.90
7822;DHT22;3956;50.558;9.678;2022-10-16T12:23:00;17.60;99.90
7822;DHT22;3956;50.558;9.678;2022-10-16T12:25:36;17.30;99.90
7822;DHT22;3956;50.558;9.678;2022-10-16T12:28:19;17.30;99.90
7822;DHT22;3956;50.558;9.678;2022-10-16T12:30:56;17.90;99.90
7822;DHT22;3956;50.558;9.678;2022-10-16T12:33:31;17.80;99.90
7822;DHT22;3956;50.558;9.678;2022-10-16T12:36:03;17.70;99.90
7822;DHT22;3956;50.558;9.678;2022-10-16T12:38:37;17.60;99.90
7822;DHT22;3956;50.558;9.678;2022-10-16T12:41:08;17.50;99.90
7822;DHT22;3956;50.558;9.678;2022-10-16T12:43:50;17.20;99.90
7822;DHT22;3956;50.558;9.678;2022-10-16T12:46:35;16.90;99.90
7822;DHT22;3956;50.558;9.678;2022-10-16T12:49:29;17.00;99.90
7822;DHT22;3956;50.558;9.678;2022-10-16T12:52:47;17.10;99.90
7822;DHT22;3956;50.558;9.678;2022-10-16T12:55:44;17.10;99.90
7822;DHT22;3956;50.558;9.678;2022-10-16T13:01:28;17.50;54.80
7822;DHT22;3956;50.558;9.678;2022-10-16T13:04:25;17.30;1.00
7822;DHT22;3956;50.558;9.678;2022-10-16T13:07:32;17.40;1.00
7822;DHT22;3956;50.558;9.678;2022-10-16T13:10:31;17.40;1.00
7822;DHT22;3956;50.558;9.678;2022-10-16T13:13:50;17.60;99.90
7822;DHT22;3956;50.558;9.678;2022-10-16T13:16:35;17.60;99.90
7822;DHT22;3956;50.558;9.678;2022-10-16T13:19:38;17.90;99.90
7822;DHT22;3956;50.558;9.678;2022-10-16T13:22:29;18.00;61.70
7822;DHT22;3956;50.558;9.678;2022-10-16T13:25:13;17.90;1.00
7822;DHT22;3956;50.558;9.678;2022-10-16T13:27:52;17.90;1.00
7822;DHT22;3956;50.558;9.678;2022-10-16T13:34:17;18.10;1.00
7822;DHT22;3956;50.558;9.678;2022-10-16T13:36:51;17.80;1.00
7822;DHT22;3956;50.558;9.678;2022-10-16T13:39:24;17.90;1.00
7822;DHT22;3956;50.558;9.678;2022-10-16T13:42:10;17.80;1.00
7822;DHT22;3956;50.558;9.678;2022-10-16T13:45:00;17.80;1.00
7822;DHT22;3956;50.558;9.678;2022-10-16T13:47:44;17.70;1.00
7822;DHT22;3956;50.558;9.678;2022-10-16T13:50:18;17.70;1.00
7822;DHT22;3956;50.558;9.678;2022-10-16T13:52:50;17.70;1.00
7822;DHT22;3956;50.558;9.678;2022-10-16T13:55:22;17.70;1.00
7822;DHT22;3956;50.558;9.678;2022-10-16T13:58:12;17.60;1.00
7822;DHT22;3956;50.558;9.678;2022-10-16T14:00:56;17.70;1.00
7822;DHT22;3956;50.558;9.678;2022-10-16T14:03:34;17.70;1.00
7822;DHT22;3956;50.558;9.678;2022-10-16T14:06:18;17.70;1.00
7822;DHT22;3956;50.558;9.678;2022-10-16T14:09:01;17.80;1.00
7822;DHT22;3956;50.558;9.678;2022-10-16T14:11:34;17.80;1.00
7822;DHT22;3956;50.558;9.678;2022-10-16T14:14:11;17.80;1.00
7822;DHT22;3956;50.558;9.678;2022-10-16T14:16:43;17.80;1.00
7822;DHT22;3956;50.558;9.678;2022-10-16T14:19:20;18.00;1.00
7822;DHT22;3956;50.558;9.678;2022-10-16T14:22:11;17.90;1.00
7822;DHT22;3956;50.558;9.678;2022-10-16T14:24:49;17.90;1.00
7822;DHT22;3956;50.558;9.678;2022-10-16T14:27:28;18.00;1.00
7822;DHT22;3956;50.558;9.678;2022-10-16T14:30:14;18.20;1.00
7822;DHT22;3956;50.558;9.678;2022-10-16T14:32:57;18.10;1.00
7822;DHT22;3956;50.558;9.678;2022-10-16T14:38:59;18.30;1.00
7822;DHT22;3956;50.558;9.678;2022-10-16T14:41:55;18.30;1.00
7822;DHT22;3956;50.558;9.678;2022-10-16T14:45:08;18.30;1.00
7822;DHT22;3956;50.558;9.678;2022-10-16T14:47:51;18.20;1.00
7822;DHT22;3956;50.558;9.678;2022-10-16T14:50:21;18.10;1.00
7822;DHT22;3956;50.558;9.678;2022-10-16T14:52:54;18.20;1.00
7822;DHT22;3956;50.558;9.678;2022-10-16T14:55:25;18.20;1.00
7822;DHT22;3956;50.558;9.678;2022-10-16T14:57:55;18.00;1.00
7822;DHT22;3956;50.558;9.678;2022-10-16T15:00:33;18.00;1.00
7822;DHT22;3956;50.558;9.678;2022-10-16T15:03:09;17.90;1.00
7822;DHT22;3956;50.558;9.678;2022-10-16T15:05:57;17.90;1.00
7822;DHT22;3956;50.558;9.678;2022-10-16T15:08:36;17.90;1.00
7822;DHT22;3956;50.558;9.678;2022-10-16T15:11:15;17.80;1.00
7822;DHT22;3956;50.558;9.678;2022-10-16T15:13:46;17.80;1.00
7822;DHT22;3956;50.558;9.678;2022-10-16T15:16:24;17.80;1.00
7822;DHT22;3956;50.558;9.678;2022-10-16T15:19:02;17.80;1.00
7822;DHT22;3956;50.558;9.678;2022-10-16T15:21:33;17.80;1.00
7822;DHT22;3956;50.558;9.678;2022-10-16T15:24:12;17.80;1.00
7822;DHT22;3956;50.558;9.678;2022-10-16T15:27:05;17.70;1.00
7822;DHT22;3956;50.558;9.678;2022-10-16T15:30:07;17.70;1.00
7822;DHT22;3956;50.558;9.678;2022-10-16T15:32:54;17.70;1.00
7822;DHT22;3956;50.558;9.678;2022-10-16T15:35:25;17.70;1.00
7822;DHT22;3956;50.558;9.678;2022-10-16T15:38:02;17.70;1.00
7822;DHT22;3956;50.558;9.678;2022-10-16T15:40:33;17.70;1.00
7822;DHT22;3956;50.558;9.678;2022-10-16T15:43:14;17.70;1.00
7822;DHT22;3956;50.558;9.678;2022-10-16T15:45:59;17.70;1.00
7822;DHT22;3956;50.558;9.678;2022-10-16T15:48:32;17.60;1.00
7822;DHT22;3956;50.558;9.678;2022-10-16T15:54:26;17.60;1.00
7822;DHT22;3956;50.558;9.678;2022-10-16T15:57:10;17.50;1.00
7822;DHT22;3956;50.558;9.678;2022-10-16T15:59:40;17.50;1.00
7822;DHT22;3956;50.558;9.678;2022-10-16T16:02:09;17.40;1.00
7822;DHT22;3956;50.558;9.678;2022-10-16T16:04:37;17.40;1.00
7822;DHT22;3956;50.558;9.678;2022-10-16T16:07:12;17.30;1.00
7822;DHT22;3956;50.558;9.678;2022-10-16T16:09:43;17.30;1.00
7822;DHT22;3956;50.558;9.678;2022-10-16T16:12:21;17.30;1.00
7822;DHT22;3956;50.558;9.678;2022-10-16T16:15:03;17.30;1.00
7822;DHT22;3956;50.558;9.678;2022-10-16T16:17:42;17.30;1.00
7822;DHT22;3956;50.558;9.678;2022-10-16T16:20:11;17.30;1.00
7822;DHT22;3956;50.558;9.678;2022-10-16T16:22:40;17.30;1.00
7822;DHT22;3956;50.558;9.678;2022-10-16T16:25:14;17.20;1.00
7822;DHT22;3956;50.558;9.678;2022-10-16T16:27:48;17.10;1.00
7822;DHT22;3956;50.558;9.678;2022-10-16T16:30:33;17.10;1.00
7822;DHT22;3956;50.558;9.678;2022-10-16T16:33:04;17.00;1.00
7822;DHT22;3956;50.558;9.678;2022-10-16T16:35:45;16.90;27.20
7822;DHT22;3956;50.558;9.678;2022-10-16T16:38:14;16.90;88.90
7822;DHT22;3956;50.558;9.678;2022-10-16T16:40:43;16.90;99.90
7822;DHT22;3956;50.558;9.678;2022-10-16T16:43:11;16.90;99.90
7822;DHT22;3956;50.558;9.678;2022-10-16T16:45:47;16.80;99.90
7822;DHT22;3956;50.558;9.678;2022-10-16T16:48:22;16.70;99.90
7822;DHT22;3956;50.558;9.678;2022-10-16T16:51:05;16.70;99.90
7822;DHT22;3956;50.558;9.678;2022-10-16T16:53:44;16.60;99.90
7822;DHT22;3956;50.558;9.678;2022-10-16T16:56:38;16.50;99.90
7822;DHT22;3956;50.558;9.678;2022-10-16T16:59:13;16.50;99.90
7822;DHT22;3956;50.558;9.678;2022-10-16T17:01:55;16.40;1.00
7822;DHT22;3956;50.558;9.678;2022-10-16T17:04:30;16.50;1.00
7822;DHT22;3956;50.558;9.678;2022-10-16T17:07:02;16.50;1.00
7822;DHT22;3956;50.558;9.678;2022-10-16T17:09:32;16.50;1.00
7822;DHT22;3956;50.558;9.678;2022-10-16T17:12:00;16.50;1.00
7822;DHT22;3956;50.558;9.678;2022-10-16T17:14:29;16.40;1.00
7822;DHT22;3956;50.558;9.678;2022-10-16T17:17:01;16.30;1.00
7822;DHT22;3956;50.558;9.678;2022-10-16T17:19:45;16.30;1.00
7822;DHT22;3956;50.558;9.678;2022-10-16T17:22:17;16.20;1.00
7822;DHT22;3956;50.558;9.678;2022-10-16T17:24:48;16.20;39.80
7822;DHT22;3956;50.558;9.678;2022-10-16T17:30:47;16.30;99.90
7822;DHT22;3956;50.558;9.678;2022-10-16T17:33:28;16.30;99.60
7822;DHT22;3956;50.558;9.678;2022-10-16T17:35:58;16.40;16.80
7822;DHT22;3956;50.558;9.678;2022-10-16T17:38:28;16.40;1.00
7822;DHT22;3956;50.558;9.678;2022-10-16T17:40:57;16.40;1.00